Hamshire, Texas
Current Conditions -  °F | °C
As of 3:35 AM on Thursday 18 Dec 2014 (Local Time) from KBMT Reporting Station
Overcast Overcast  
Wind Chill: 58°   Ceiling: 2300
Heat Index: 58°   Visibility: 10mi
Dew Point: 55°   Wind: 5mph
Humidity: 89%   Direction: 100°E
Pressure: 30.08"   Gusts: NA
Location:  29.86°N, 94.31°W
Report Text: KBMT 180935Z AUTO 10004KT 10SM SCT017 BKN023 OVC048 14/13 A3008 RMK AO2 T01440126
Loading
Personal Weather Stations






























Interactive Weather Map New forecast layout! Learn more

10-Day Weather Forecast

Advertisements
Track Severe Weather on mobile